createdAt,value
2023-04-16T00:00:42.382Z,100149.16
2023-04-16T00:03:10.001Z,100150.31
2023-04-16T00:05:37.571Z,100148.53
2023-04-16T00:08:05.023Z,100146.31
2023-04-16T00:10:32.523Z,100152.34
2023-04-16T00:12:59.954Z,100159.25
2023-04-16T00:15:28.755Z,100152.25
2023-04-16T00:17:56.270Z,100149.28
2023-04-16T00:20:23.785Z,100146.56
2023-04-16T00:22:52.077Z,100156.34
2023-04-16T00:25:19.500Z,100155.34
2023-04-16T00:27:46.932Z,100156.72
2023-04-16T00:30:14.882Z,100156.38
2023-04-16T00:32:43.728Z,100158.94
2023-04-16T00:35:11.227Z,100159.63
2023-04-16T00:37:38.661Z,100157.19
2023-04-16T00:40:07.403Z,100157.34
2023-04-16T00:42:34.882Z,100159.41
2023-04-16T00:45:02.341Z,100159.47
2023-04-16T00:47:30.053Z,100159.75
2023-04-16T00:49:58.861Z,100159.84
2023-04-16T00:52:26.756Z,100175.41
2023-04-16T00:54:54.913Z,100166.47
2023-04-16T00:57:23.825Z,100167.13
2023-04-16T00:59:51.521Z,100165.69
2023-04-16T01:02:19.146Z,100156.03
2023-04-16T01:04:46.739Z,100171.34
2023-04-16T01:07:15.659Z,100171.13
2023-04-16T01:09:43.124Z,100170.25
2023-04-16T01:12:10.547Z,100173.38
2023-04-16T01:14:38.016Z,100171.88
2023-04-16T01:17:05.531Z,100171.41
2023-04-16T01:19:36.092Z,100180.84
2023-04-16T01:22:05.614Z,100174.94
2023-04-16T01:24:33.087Z,100176.25
2023-04-16T01:27:00.536Z,100169.09
2023-04-16T01:29:28.346Z,100177.13
2023-04-16T01:31:55.786Z,100175.31
2023-04-16T01:34:23.215Z,100175.88
2023-04-16T01:36:51.084Z,100180.97
2023-04-16T01:39:19.978Z,100175.19
2023-04-16T01:41:47.473Z,100188.28
2023-04-16T01:44:14.993Z,100191.44
2023-04-16T01:46:42.535Z,100188.63
2023-04-16T01:49:10.375Z,100187.03
2023-04-16T01:51:37.985Z,100185.91
2023-04-16T01:54:05.670Z,100182.13
2023-04-16T01:56:34.511Z,100183.91
2023-04-16T01:59:01.984Z,100183.84
2023-04-16T02:01:30.310Z,100183.91
2023-04-16T02:03:58.299Z,100174.53
2023-04-16T02:06:25.974Z,100182.34
2023-04-16T02:08:53.458Z,100179.84
2023-04-16T02:11:21.979Z,100180.53
2023-04-16T02:13:50.859Z,100180.88
2023-04-16T02:16:18.374Z,100171.06
2023-04-16T02:18:45.930Z,100179.50
2023-04-16T02:21:13.860Z,100177.63
2023-04-16T02:23:41.660Z,100179.50
2023-04-16T02:26:09.217Z,100178.94
2023-04-16T02:28:36.705Z,100182.41
2023-04-16T02:31:05.703Z,100179.78
2023-04-16T02:33:33.175Z,100178.41
2023-04-16T02:36:00.731Z,100182.16
2023-04-16T02:38:28.237Z,100183.72
2023-04-16T02:40:55.691Z,100186.44
2023-04-16T02:43:23.089Z,100182.88
2023-04-16T02:45:50.555Z,100182.34
2023-04-16T02:48:19.343Z,100187.94
2023-04-16T02:50:46.803Z,100180.56
2023-04-16T02:53:14.244Z,100180.66
2023-04-16T02:55:41.684Z,100183.25
2023-04-16T02:58:09.117Z,100182.50
2023-04-16T03:00:36.827Z,100187.59
2023-04-16T03:03:04.505Z,100188.47
2023-04-16T03:05:33.658Z,100185.88
2023-04-16T03:08:01.129Z,100186.72
2023-04-16T03:10:28.533Z,100190.38
2023-04-16T03:12:55.967Z,100191.88
2023-04-16T03:15:23.474Z,100195.63
2023-04-16T03:17:51.094Z,100186.78
2023-04-16T03:20:19.064Z,100188.50
2023-04-16T03:22:48.295Z,100190.00
2023-04-16T03:25:15.833Z,100185.81
2023-04-16T03:27:43.270Z,100193.25
2023-04-16T03:30:13.067Z,100193.34
2023-04-16T03:32:40.925Z,100196.22
2023-04-16T03:35:09.644Z,100196.00
2023-04-16T03:37:37.172Z,100190.44
2023-04-16T03:40:07.065Z,100197.84
2023-04-16T03:42:34.571Z,100200.09
2023-04-16T03:45:01.999Z,100193.28
2023-04-16T03:47:29.516Z,100196.38
2023-04-16T03:49:56.970Z,100197.75
2023-04-16T03:52:24.446Z,100199.28
2023-04-16T03:54:52.119Z,100200.84
2023-04-16T03:57:20.918Z,100191.91
2023-04-16T03:59:48.354Z,100195.88
2023-04-16T04:02:16.006Z,100200.09
2023-04-16T04:04:43.633Z,100196.16
2023-04-16T04:07:11.149Z,100201.25
2023-04-16T04:09:38.686Z,100196.44
2023-04-16T04:12:06.172Z,100197.72
2023-04-16T04:14:39.579Z,100203.22
2023-04-16T04:17:07.127Z,100201.47
2023-04-16T04:19:34.681Z,100200.78
2023-04-16T04:22:02.178Z,100215.63
2023-04-16T04:24:29.669Z,100210.16
2023-04-16T04:26:57.290Z,100218.59
2023-04-16T04:29:24.779Z,100213.63
2023-04-16T04:31:55.117Z,100225.41
2023-04-16T04:34:22.653Z,100225.13
2023-04-16T04:36:50.150Z,100222.28
2023-04-16T04:39:17.770Z,100226.47
2023-04-16T04:41:45.257Z,100230.44
2023-04-16T04:44:12.732Z,100226.16
2023-04-16T04:46:40.606Z,100231.19
2023-04-16T04:49:09.525Z,100225.81
2023-04-16T04:51:37.198Z,100234.97
2023-04-16T04:54:04.763Z,100234.75
2023-04-16T04:56:32.193Z,100236.66
2023-04-16T04:58:59.618Z,100238.53
2023-04-16T05:01:27.090Z,100239.31
2023-04-16T05:03:54.607Z,100238.25
2023-04-16T05:06:23.463Z,100245.94
2023-04-16T05:08:50.861Z,100250.63
2023-04-16T05:11:18.302Z,100252.44
2023-04-16T05:13:45.762Z,100252.19
2023-04-16T05:16:13.255Z,100253.41
2023-04-16T05:18:40.727Z,100254.34
2023-04-16T05:21:08.160Z,100254.44
2023-04-16T05:23:36.937Z,100259.44
2023-04-16T05:26:04.431Z,100249.25
2023-04-16T05:28:32.148Z,100250.75
2023-04-16T05:30:59.623Z,100252.44
2023-04-16T05:33:27.080Z,100259.94
2023-04-16T05:35:54.518Z,100269.66
2023-04-16T05:38:21.986Z,100271.69
2023-04-16T05:40:50.805Z,100275.78
2023-04-16T05:43:18.917Z,100280.94
2023-04-16T05:45:46.481Z,100280.75
2023-04-16T05:48:13.947Z,100276.16
2023-04-16T05:50:41.377Z,100286.97
2023-04-16T05:53:09.779Z,100286.31
2023-04-16T05:55:37.577Z,100287.94
2023-04-16T05:58:06.426Z,100286.38
2023-04-16T06:00:34.412Z,100297.66
2023-04-16T06:03:03.002Z,100295.56
2023-04-16T06:05:30.797Z,100296.78
2023-04-16T06:07:58.262Z,100301.19
2023-04-16T06:10:25.767Z,100306.97
2023-04-16T06:12:53.273Z,100299.28
2023-04-16T06:15:22.097Z,100298.63
2023-04-16T06:17:50.311Z,100294.88
2023-04-16T06:20:17.948Z,100301.50
2023-04-16T06:22:45.386Z,100299.66
2023-04-16T06:25:12.860Z,100302.47
2023-04-16T06:27:40.280Z,100306.72
2023-04-16T06:30:13.280Z,100308.56
2023-04-16T06:32:43.015Z,100314.31
2023-04-16T06:35:10.837Z,100318.41
2023-04-16T06:37:38.294Z,100315.09
2023-04-16T06:40:06.698Z,100320.88
2023-04-16T06:42:34.210Z,100324.38
2023-04-16T06:45:02.127Z,100328.25
2023-04-16T06:47:29.712Z,100331.28
2023-04-16T06:49:58.578Z,100324.38
2023-04-16T06:52:26.161Z,100331.56
2023-04-16T06:54:53.591Z,100327.25
2023-04-16T06:57:21.032Z,100327.22
2023-04-16T06:59:48.502Z,100333.81
2023-04-16T07:02:16.139Z,100331.59
2023-04-16T07:04:43.635Z,100331.97
2023-04-16T07:07:12.441Z,100330.97
2023-04-16T07:09:39.938Z,100327.69
2023-04-16T07:12:08.060Z,100331.56
2023-04-16T07:14:35.615Z,100339.06
2023-04-16T07:17:03.295Z,100336.03
2023-04-16T07:19:32.524Z,100341.22
2023-04-16T07:21:59.977Z,100342.41
2023-04-16T07:24:28.762Z,100343.78
2023-04-16T07:26:56.232Z,100341.00
2023-04-16T07:29:23.778Z,100342.50
2023-04-16T07:31:51.349Z,100348.28
2023-04-16T07:34:18.946Z,100348.50
2023-04-16T07:36:46.395Z,100351.59
2023-04-16T07:39:13.858Z,100351.75
2023-04-16T07:41:42.920Z,100358.69
2023-04-16T07:44:10.562Z,100361.94
2023-04-16T07:46:46.224Z,100361.22
2023-04-16T07:49:15.372Z,100368.88
2023-04-16T07:51:43.015Z,100366.53
2023-04-16T07:54:11.487Z,100366.31
2023-04-16T07:56:39.093Z,100366.75
2023-04-16T07:59:19.069Z,100367.22
2023-04-16T08:01:50.894Z,100375.50
2023-04-16T08:04:24.274Z,100368.03
2023-04-16T08:06:52.521Z,100381.16
2023-04-16T08:09:20.457Z,100382.63
2023-04-16T08:11:49.092Z,100382.69
2023-04-16T08:14:18.182Z,100389.09
2023-04-16T08:16:45.784Z,100385.50
2023-04-16T08:19:13.492Z,100391.25
2023-04-16T08:21:41.303Z,100398.91
2023-04-16T08:24:08.967Z,100398.63
2023-04-16T08:26:36.561Z,100402.06
2023-04-16T08:29:04.056Z,100396.06
2023-04-16T08:31:33.112Z,100410.00
2023-04-16T08:34:01.277Z,100410.47
2023-04-16T08:36:28.749Z,100408.00
2023-04-16T08:38:56.244Z,100413.91
2023-04-16T08:41:25.847Z,100408.66
2023-04-16T08:43:56.274Z,100415.66
2023-04-16T08:46:26.518Z,100415.28
2023-04-16T08:48:56.661Z,100418.06
2023-04-16T08:51:24.919Z,100422.06
2023-04-16T08:53:54.118Z,100418.94
2023-04-16T08:56:23.972Z,100424.47
2023-04-16T08:58:52.590Z,100424.00
2023-04-16T09:01:20.815Z,100423.00
2023-04-16T09:03:49.759Z,100426.75
2023-04-16T09:06:18.781Z,100431.75
2023-04-16T09:08:46.584Z,100427.34
2023-04-16T09:11:15.229Z,100428.50
2023-04-16T09:13:42.738Z,100426.50
2023-04-16T09:16:11.855Z,100426.44
2023-04-16T09:18:39.404Z,100428.34
2023-04-16T09:21:07.702Z,100438.03
2023-04-16T09:23:38.569Z,100441.00
2023-04-16T09:26:06.632Z,100442.13
2023-04-16T09:28:40.907Z,100444.72
2023-04-16T09:31:09.993Z,100445.50
2023-04-16T09:33:37.493Z,100446.16
2023-04-16T09:36:06.524Z,100451.34
2023-04-16T09:38:52.309Z,100443.75
2023-04-16T09:41:20.536Z,100453.16
2023-04-16T09:43:56.400Z,100449.66
2023-04-16T09:46:24.607Z,100457.00
2023-04-16T09:48:52.146Z,100456.94
2023-04-16T09:51:19.643Z,100458.56
2023-04-16T09:53:47.147Z,100463.44
2023-04-16T09:56:15.960Z,100462.53
2023-04-16T09:58:43.419Z,100462.00
2023-04-16T10:01:12.859Z,100467.25
2023-04-16T10:03:41.883Z,100463.91
2023-04-16T10:06:15.611Z,100459.00
2023-04-16T10:08:44.679Z,100466.31
2023-04-16T10:11:12.204Z,100472.34
2023-04-16T10:13:41.128Z,100473.72
2023-04-16T10:16:09.408Z,100471.56
2023-04-16T10:18:38.090Z,100468.66
2023-04-16T10:21:06.510Z,100477.16
2023-04-16T10:23:34.440Z,100480.34
2023-04-16T10:26:02.807Z,100463.78
2023-04-16T10:28:31.211Z,100470.97
2023-04-16T10:31:01.020Z,100470.59
2023-04-16T10:33:31.167Z,100474.38
2023-04-16T10:36:10.319Z,100471.09
2023-04-16T10:38:40.935Z,100469.09
2023-04-16T10:41:09.592Z,100479.66
2023-04-16T10:43:41.915Z,100472.31
2023-04-16T10:46:21.668Z,100472.44
2023-04-16T10:48:51.030Z,100470.91
2023-04-16T10:51:27.770Z,100475.31
2023-04-16T10:53:56.064Z,100467.16
2023-04-16T10:56:24.605Z,100468.84
2023-04-16T10:58:54.251Z,100463.50
2023-04-16T11:01:31.435Z,100465.22
2023-04-16T11:04:01.880Z,100457.94
2023-04-16T11:06:31.900Z,100465.81
2023-04-16T11:08:59.389Z,100465.16
2023-04-16T11:11:28.311Z,100468.81
2023-04-16T11:13:59.011Z,100460.25
2023-04-16T11:16:28.137Z,100467.03
2023-04-16T11:18:57.085Z,100467.34
2023-04-16T11:21:25.328Z,100459.22
2023-04-16T11:23:54.180Z,100459.00
2023-04-16T11:26:24.801Z,100458.06
2023-04-16T11:28:52.534Z,100460.25
2023-04-16T11:31:20.067Z,100466.06
2023-04-16T11:33:48.914Z,100458.44
2023-04-16T11:36:16.509Z,100458.66
2023-04-16T11:38:43.960Z,100465.75
2023-04-16T11:41:11.919Z,100460.63
2023-04-16T11:43:39.385Z,100471.09
2023-04-16T11:46:16.211Z,100466.59
2023-04-16T11:48:50.250Z,100467.16
2023-04-16T11:51:18.071Z,100468.38
2023-04-16T11:53:53.407Z,100474.09
2023-04-16T11:56:28.421Z,100469.25
2023-04-16T11:59:10.000Z,100466.50
2023-04-16T12:01:39.141Z,100472.72
2023-04-16T12:04:09.200Z,100468.59
2023-04-16T12:06:37.151Z,100480.03
2023-04-16T12:09:25.886Z,100481.38
2023-04-16T12:11:53.987Z,100478.59
2023-04-16T12:14:21.783Z,100483.31
2023-04-16T12:16:49.507Z,100479.38
2023-04-16T12:19:18.827Z,100483.19
2023-04-16T12:21:48.292Z,100482.69
2023-04-16T12:24:20.522Z,100476.84
2023-04-16T12:26:52.779Z,100484.41
2023-04-16T12:29:21.980Z,100480.19
2023-04-16T12:31:50.392Z,100482.19
2023-04-16T12:34:20.855Z,100482.75
2023-04-16T12:36:50.151Z,100482.63
2023-04-16T12:39:17.624Z,100477.91
2023-04-16T12:41:45.748Z,100487.59
2023-04-16T12:44:17.808Z,100486.25
2023-04-16T12:46:46.236Z,100488.69
2023-04-16T12:49:13.976Z,100478.63
2023-04-16T12:51:42.820Z,100488.16
2023-04-16T12:54:10.484Z,100492.56
2023-04-16T12:56:38.292Z,100480.41
2023-04-16T12:59:05.768Z,100491.19
2023-04-16T13:01:36.006Z,100484.44
2023-04-16T13:04:03.798Z,100486.56
2023-04-16T13:06:32.537Z,100476.50
2023-04-16T13:09:01.393Z,100479.41
2023-04-16T13:11:28.924Z,100480.50
2023-04-16T13:13:56.400Z,100488.53
2023-04-16T13:16:23.906Z,100478.78
2023-04-16T13:18:51.491Z,100480.31
2023-04-16T13:21:18.963Z,100474.88
2023-04-16T13:23:48.944Z,100475.56
2023-04-16T13:26:17.805Z,100472.69
2023-04-16T13:28:45.265Z,100474.25
2023-04-16T13:31:12.967Z,100477.19
2023-04-16T13:33:40.742Z,100473.00
2023-04-16T13:36:08.321Z,100475.66
2023-04-16T13:38:35.876Z,100474.22
2023-04-16T13:41:03.334Z,100468.84
2023-04-16T13:43:32.107Z,100475.00
2023-04-16T13:46:00.849Z,100478.38
2023-04-16T13:48:29.236Z,100471.53
2023-04-16T13:50:56.893Z,100470.06
2023-04-16T13:53:24.336Z,100471.28
2023-04-16T13:55:51.842Z,100459.78
2023-04-16T13:58:19.334Z,100459.34
2023-04-16T14:00:48.224Z,100465.16
2023-04-16T14:03:15.838Z,100465.09
2023-04-16T14:05:43.723Z,100462.81
2023-04-16T14:08:12.903Z,100465.88
2023-04-16T14:10:40.570Z,100453.16
2023-04-16T14:13:08.094Z,100459.94
2023-04-16T14:15:35.991Z,100458.28
2023-04-16T14:18:05.172Z,100462.91
2023-04-16T14:20:32.968Z,100460.53
2023-04-16T14:23:00.423Z,100470.59
2023-04-16T14:25:27.986Z,100463.94
2023-04-16T14:27:55.974Z,100468.25
2023-04-16T14:30:23.498Z,100469.09
2023-04-16T14:32:51.069Z,100465.06
2023-04-16T14:35:20.268Z,100463.06
2023-04-16T14:37:47.831Z,100461.88
2023-04-16T14:40:15.351Z,100465.50
2023-04-16T14:42:42.840Z,100460.50
2023-04-16T14:45:11.012Z,100460.81
2023-04-16T14:47:45.404Z,100466.38
2023-04-16T14:50:14.670Z,100466.16
2023-04-16T14:52:43.512Z,100459.75
2023-04-16T14:55:10.992Z,100469.50
2023-04-16T14:57:38.947Z,100464.28
2023-04-16T15:00:09.679Z,100461.28
2023-04-16T15:02:37.694Z,100467.00
2023-04-16T15:05:07.711Z,100457.56
2023-04-16T15:07:35.147Z,100470.03
2023-04-16T15:10:04.823Z,100459.75
2023-04-16T15:12:32.372Z,100467.44
2023-04-16T15:15:00.333Z,100467.41
2023-04-16T15:17:27.960Z,100459.97
2023-04-16T15:19:55.531Z,100459.41
2023-04-16T15:22:23.105Z,100461.06
2023-04-16T15:24:50.660Z,100466.63
2023-04-16T15:27:20.418Z,100469.56
2023-04-16T15:29:49.303Z,100464.63
2023-04-16T15:32:16.774Z,100464.16
2023-04-16T15:34:44.399Z,100467.47
2023-04-16T15:37:11.855Z,100471.09
2023-04-16T15:39:39.500Z,100464.28
2023-04-16T15:42:07.691Z,100469.19
2023-04-16T15:44:36.532Z,100468.00
2023-04-16T15:47:06.143Z,100465.22
2023-04-16T15:49:33.635Z,100472.09
2023-04-16T15:52:01.438Z,100465.09
2023-04-16T15:54:30.133Z,100466.25
2023-04-16T15:56:58.550Z,100464.63
2023-04-16T15:59:26.159Z,100465.94
2023-04-16T16:01:55.094Z,100457.78
2023-04-16T16:04:23.338Z,100469.75
2023-04-16T16:06:51.628Z,100471.66
2023-04-16T16:09:25.412Z,100470.44
2023-04-16T16:11:54.019Z,100472.09
2023-04-16T16:14:21.820Z,100472.72
2023-04-16T16:16:49.560Z,100474.78
2023-04-16T16:19:18.638Z,100476.06
2023-04-16T16:21:46.130Z,100474.44
2023-04-16T16:24:13.800Z,100473.19
2023-04-16T16:26:41.372Z,100475.28
2023-04-16T16:29:09.110Z,100477.44
2023-04-16T16:31:36.721Z,100483.00
2023-04-16T16:34:04.320Z,100481.84
2023-04-16T16:36:36.516Z,100479.63
2023-04-16T16:39:04.677Z,100483.31
2023-04-16T16:41:32.245Z,100480.59
2023-04-16T16:43:59.704Z,100480.25
2023-04-16T16:46:27.171Z,100485.25
2023-04-16T16:48:54.698Z,100482.81
2023-04-16T16:51:22.173Z,100479.56
2023-04-16T16:53:50.954Z,100479.59
2023-04-16T16:56:18.385Z,100482.28
2023-04-16T16:58:46.260Z,100479.22
2023-04-16T17:01:13.736Z,100484.34
2023-04-16T17:03:42.095Z,100482.34
2023-04-16T17:06:09.751Z,100484.84
2023-04-16T17:08:37.210Z,100481.81
2023-04-16T17:11:06.105Z,100485.28
2023-04-16T17:13:34.365Z,100479.06
2023-04-16T17:16:01.808Z,100472.31
2023-04-16T17:18:29.316Z,100479.84
2023-04-16T17:20:56.806Z,100487.69
2023-04-16T17:23:24.335Z,100489.06
2023-04-16T17:25:51.811Z,100482.41
2023-04-16T17:28:21.357Z,100486.81
2023-04-16T17:30:52.374Z,100487.13
2023-04-16T17:33:20.391Z,100482.31
2023-04-16T17:35:47.972Z,100477.59
2023-04-16T17:38:15.492Z,100486.72
2023-04-16T17:40:42.996Z,100488.38
2023-04-16T17:43:10.515Z,100490.19
2023-04-16T17:45:39.374Z,100489.72
2023-04-16T17:48:07.304Z,100495.56
2023-04-16T17:50:36.029Z,100496.19
2023-04-16T17:53:04.532Z,100490.34
2023-04-16T17:55:32.266Z,100495.88
2023-04-16T17:58:00.282Z,100502.06
2023-04-16T18:00:27.755Z,100498.22
2023-04-16T18:02:58.277Z,100506.66
2023-04-16T18:05:26.256Z,100506.38
2023-04-16T18:07:55.260Z,100508.13
2023-04-16T18:10:22.974Z,100510.94
2023-04-16T18:12:50.618Z,100518.31
2023-04-16T18:15:18.369Z,100516.25
2023-04-16T18:17:46.060Z,100519.84
2023-04-16T18:20:16.772Z,100522.31
2023-04-16T18:22:44.231Z,100519.81
2023-04-16T18:25:12.142Z,100515.81
2023-04-16T18:27:39.686Z,100522.19
2023-04-16T18:30:09.917Z,100527.63
2023-04-16T18:33:04.191Z,100528.47
2023-04-16T18:35:35.294Z,100525.88
2023-04-16T18:38:02.764Z,100530.56
2023-04-16T18:40:30.327Z,100534.03
2023-04-16T18:42:57.820Z,100539.03
2023-04-16T18:45:28.148Z,100538.75
2023-04-16T18:47:58.486Z,100542.34
2023-04-16T18:50:26.013Z,100543.84
2023-04-16T18:52:54.821Z,100546.34
2023-04-16T18:55:22.296Z,100549.53
2023-04-16T18:57:49.913Z,100555.47
2023-04-16T19:00:18.181Z,100556.78
2023-04-16T19:02:45.801Z,100552.53
2023-04-16T19:05:13.402Z,100558.56
2023-04-16T19:07:41.669Z,100560.91
2023-04-16T19:10:11.292Z,100553.09
2023-04-16T19:12:38.851Z,100558.31
2023-04-16T19:15:07.104Z,100559.00
2023-04-16T19:17:34.607Z,100558.44
2023-04-16T19:20:02.200Z,100559.75
2023-04-16T19:22:29.698Z,100557.22
2023-04-16T19:24:57.191Z,100565.31
2023-04-16T19:27:26.117Z,100559.63
2023-04-16T19:29:53.585Z,100566.75
2023-04-16T19:32:21.080Z,100565.16
2023-04-16T19:34:48.614Z,100564.81
2023-04-16T19:37:16.226Z,100562.56
2023-04-16T19:39:43.722Z,100568.13
2023-04-16T19:42:11.193Z,100564.78
2023-04-16T19:44:39.991Z,100567.81
2023-04-16T19:47:07.489Z,100566.53
2023-04-16T19:49:35.008Z,100564.59
2023-04-16T19:52:02.601Z,100570.78
2023-04-16T19:54:33.418Z,100568.41
2023-04-16T19:57:01.505Z,100563.88
2023-04-16T19:59:29.009Z,100567.56
2023-04-16T20:01:57.851Z,100568.31
2023-04-16T20:04:25.375Z,100573.16
2023-04-16T20:06:53.531Z,100569.38
2023-04-16T20:09:21.217Z,100579.81
2023-04-16T20:11:48.677Z,100575.84
2023-04-16T20:14:16.520Z,100583.88
2023-04-16T20:16:44.513Z,100598.16
2023-04-16T20:19:17.063Z,100603.84
2023-04-16T20:21:45.406Z,100590.22
2023-04-16T20:24:12.906Z,100587.22
2023-04-16T20:26:40.449Z,100588.22
2023-04-16T20:29:08.112Z,100593.56
2023-04-16T20:31:35.632Z,100597.78
2023-04-16T20:34:03.689Z,100592.00
2023-04-16T20:36:32.584Z,100593.16
2023-04-16T20:39:01.999Z,100587.91
2023-04-16T20:41:30.083Z,100590.47
2023-04-16T20:43:57.542Z,100591.25
2023-04-16T20:46:25.030Z,100591.91
2023-04-16T20:48:52.615Z,100585.69
2023-04-16T20:51:21.423Z,100582.84
2023-04-16T20:53:52.005Z,100584.69
2023-04-16T20:56:19.550Z,100579.59
2023-04-16T20:58:47.013Z,100582.09
2023-04-16T21:01:14.611Z,100590.28
2023-04-16T21:03:42.205Z,100585.91
2023-04-16T21:06:12.580Z,100586.50
2023-04-16T21:08:40.019Z,100589.25
2023-04-16T21:11:08.863Z,100583.94
2023-04-16T21:13:36.332Z,100584.19
2023-04-16T21:16:04.821Z,100587.59
2023-04-16T21:18:32.395Z,100579.75
2023-04-16T21:20:59.987Z,100582.97
2023-04-16T21:23:27.552Z,100592.09
2023-04-16T21:25:56.188Z,100585.50
2023-04-16T21:28:25.014Z,100581.25
2023-04-16T21:30:52.528Z,100590.25
2023-04-16T21:33:20.312Z,100580.69
2023-04-16T21:35:51.992Z,100588.94
2023-04-16T21:38:19.556Z,100592.34
2023-04-16T21:40:50.370Z,100585.19
2023-04-16T21:43:17.842Z,100591.00
2023-04-16T21:45:46.765Z,100589.00
2023-04-16T21:48:14.530Z,100590.91
2023-04-16T21:50:41.948Z,100589.38
2023-04-16T21:53:09.764Z,100594.69
2023-04-16T21:55:38.970Z,100590.28
2023-04-16T21:58:06.390Z,100585.91
2023-04-16T22:00:34.095Z,100591.09
2023-04-16T22:03:04.153Z,100585.66
2023-04-16T22:05:33.133Z,100577.91
2023-04-16T22:08:04.010Z,100587.59
2023-04-16T22:10:39.245Z,100587.75
2023-04-16T22:13:12.527Z,100585.69
2023-04-16T22:15:40.478Z,100580.84
2023-04-16T22:18:09.551Z,100575.13
2023-04-16T22:20:39.731Z,100581.28
2023-04-16T22:23:07.323Z,100585.66
2023-04-16T22:25:34.800Z,100578.63
2023-04-16T22:28:02.290Z,100582.06
2023-04-16T22:30:29.727Z,100584.41
2023-04-16T22:32:57.655Z,100591.25
2023-04-16T22:35:26.478Z,100578.72
2023-04-16T22:37:53.916Z,100579.78
2023-04-16T22:40:21.429Z,100591.97
2023-04-16T22:42:50.113Z,100584.06
2023-04-16T22:45:17.710Z,100588.59
2023-04-16T22:47:45.243Z,100578.97
2023-04-16T22:50:12.972Z,100581.66
2023-04-16T22:52:41.826Z,100580.47
2023-04-16T22:55:09.933Z,100581.56
2023-04-16T22:57:37.398Z,100581.41
2023-04-16T23:00:09.546Z,100584.38
2023-04-16T23:02:37.114Z,100582.50
2023-04-16T23:05:04.989Z,100585.81
2023-04-16T23:07:32.427Z,100589.75
2023-04-16T23:10:01.264Z,100585.47
2023-04-16T23:12:28.719Z,100582.38
2023-04-16T23:14:56.312Z,100587.41
2023-04-16T23:17:23.995Z,100585.03
2023-04-16T23:19:51.428Z,100581.44
2023-04-16T23:22:18.873Z,100588.56
2023-04-16T23:24:46.306Z,100582.47
2023-04-16T23:27:15.421Z,100576.06
2023-04-16T23:29:42.870Z,100580.47
2023-04-16T23:32:10.299Z,100582.28
2023-04-16T23:34:37.745Z,100586.22
2023-04-16T23:37:05.214Z,100585.47
2023-04-16T23:39:32.636Z,100584.22
2023-04-16T23:42:00.469Z,100586.75
2023-04-16T23:44:29.375Z,100588.03
2023-04-16T23:46:57.244Z,100584.44
2023-04-16T23:49:25.317Z,100587.13
2023-04-16T23:51:52.982Z,100583.44
2023-04-16T23:54:21.302Z,100585.00
2023-04-16T23:56:49.187Z,100578.56
2023-04-16T23:59:16.827Z,100584.25
